JWY weather

Mid Way Regional Airport
Midlothian/Waxahachie, Texas, United States

Public forecast

Using degrees Fahrenheit for public forecast. Weather courtesy of forecast.io.

Current aviation weather report (METAR) for Mid Way Regional Airport

Report is more than 6 hours old.

Retrieved 2020/01/25 19:15 UTC (22 days ago):

KJWY 251915Z AUTO 18013G22KT 10SM SCT055 17/05 A3005 RMK AO2 T01690045

Closest aviation forecast (TAF) to Mid Way Regional Airport

Closest forecast is Arlington Municipal Airport, 15.5 nm (28.7 km) NW. Retrieved 2020-02-17 00:30 UTC (0 seconds ago):

TAF KGKY 162327Z 1700/1724 16010KT P6SM FEW250 FM171600 21015KT P6SM FEW050 SCT200 FM172200 26014KT P6SM FEW050 SCT200